Time;durP1;ratioP1;P1;durP2;ratioP2;P2;SDS_P1;SDS_P2;PMS_P1;PMS_P2;Temp;Humidity;BMP_temperature;BMP_pressure;BME280_temperature;BME280_humidity;BME280_pressure;Samples;Min_cycle;Max_cycle;Signal;HPM_P1;HPM_P2
2022/06/17 00:00:58;;;;;;;3.80;1.70;;;;;;;16.32;82.90;99355.19;6245430;22;19907;-65
2022/06/17 00:03:26;;;;;;;3.33;1.58;;;;;;;16.29;82.76;99358.38;6248371;22;20011;-66
2022/06/17 00:05:54;;;;;;;4.90;2.03;;;;;;;16.26;83.56;99351.47;6248571;22;19999;-66
2022/06/17 00:08:25;;;;;;;2.97;1.88;;;;;;;16.23;84.45;99359.28;6248268;22;20094;-66
2022/06/17 00:10:50;;;;;;;4.95;1.60;;;;;;;16.20;81.68;99355.13;6247728;22;20011;-66
2022/06/17 00:13:18;;;;;;;2.90;1.73;;;;;;;16.17;82.02;99356.41;6249113;22;20029;-66
2022/06/17 00:15:45;;;;;;;3.53;1.80;;;;;;;16.08;82.77;99356.91;6246049;22;20414;-65
2022/06/17 00:18:14;;;;;;;1.88;1.38;;;;;;;16.11;86.69;99367.38;6247102;22;20123;-66
2022/06/17 00:20:39;;;;;;;2.08;1.65;;;;;;;16.02;87.77;99375.03;6273847;22;20031;-66
2022/06/17 00:23:11;;;;;;;2.45;1.65;;;;;;;15.98;85.91;99369.19;6248750;22;20034;-66
2022/06/17 00:25:38;;;;;;;3.83;1.55;;;;;;;15.90;86.84;99365.91;6274509;22;19995;-66
2022/06/17 00:28:05;;;;;;;2.28;1.70;;;;;;;15.77;85.37;99375.91;6248491;22;20030;-66
2022/06/17 00:30:32;;;;;;;3.95;1.98;;;;;;;15.76;95.95;99378.84;6244927;22;20004;-66
2022/06/17 00:33:00;;;;;;;3.80;2.00;;;;;;;15.67;98.53;99377.44;6248795;22;20078;-65
2022/06/17 00:35:50;;;;;;;2.92;1.70;;;;;;;15.40;100.00;99371.31;6245886;22;20023;-65
2022/06/17 00:38:22;;;;;;;2.92;2.00;;;;;;;15.34;100.00;99382.06;6249366;22;20007;-66
2022/06/17 00:40:48;;;;;;;8.02;2.30;;;;;;;15.37;100.00;99375.31;6246714;22;20341;-65
2022/06/17 00:43:24;;;;;;;2.63;1.85;;;;;;;15.30;100.00;99389.03;6248366;22;20018;-65
2022/06/17 00:45:58;;;;;;;3.75;1.90;;;;;;;15.31;97.91;99389.84;6271802;22;20386;-65
2022/06/17 00:48:28;;;;;;;3.92;1.67;;;;;;;15.26;93.85;99403.31;6248398;22;20027;-65
2022/06/17 00:50:59;;;;;;;3.13;1.45;;;;;;;15.27;93.03;99399.50;6248113;22;20057;-66
2022/06/17 00:53:29;;;;;;;2.17;1.23;;;;;;;15.34;89.56;99400.31;6248549;22;20004;-65
2022/06/17 00:56:08;;;;;;;2.30;1.25;;;;;;;15.35;88.63;99396.53;6245389;22;20007;-61
2022/06/17 00:59:01;;;;;;;2.42;1.40;;;;;;;15.33;87.80;99398.66;6248766;22;20008;-61
2022/06/17 01:01:50;;;;;;;2.40;1.38;;;;;;;15.29;86.01;99394.69;6246794;22;20429;-61
2022/06/17 01:04:22;;;;;;;2.20;1.50;;;;;;;15.23;87.00;99401.84;6247511;22;20433;-61
2022/06/17 01:07:09;;;;;;;3.13;1.65;;;;;;;15.12;88.25;99378.84;6246339;22;20003;-61
2022/06/17 01:12:25;;;;;;;2.83;1.20;;;;;;;15.20;87.04;99387.84;6270798;22;20451;-61
2022/06/17 01:14:51;;;;;;;;;;;;;;;15.21;87.18;99381.31;6246124;22;20003;-61
2022/06/17 01:17:18;;;;;;;1.83;1.20;;;;;;;15.17;90.94;99390.97;6248072;22;19956;-61
2022/06/17 01:19:52;;;;;;;3.13;1.70;;;;;;;15.27;100.00;99383.16;6247525;22;20074;-61
2022/06/17 01:22:27;;;;;;;4.57;1.90;;;;;;;15.18;100.00;99376.31;6248215;22;20019;-61
2022/06/17 01:24:58;;;;;;;2.70;1.98;;;;;;;15.22;100.00;99366.63;6246112;22;20429;-61
2022/06/17 01:27:27;;;;;;;4.13;1.90;;;;;;;15.22;100.00;99369.34;6248112;22;20003;-61
2022/06/17 01:29:53;;;;;;;;;;;;;;;15.01;100.00;99373.25;6248739;22;20011;-60
2022/06/17 01:32:22;;;;;;;4.18;2.30;;;;;;;14.82;100.00;99369.56;6247685;22;19903;-61
2022/06/17 01:34:47;;;;;;;4.35;1.98;;;;;;;14.68;100.00;99364.19;6246020;22;20004;-60
2022/06/17 01:37:13;;;;;;;5.07;1.60;;;;;;;14.66;100.00;99370.91;6248288;22;20413;-60
2022/06/17 01:39:41;;;;;;;6.15;2.00;;;;;;;14.56;100.00;99357.75;6246786;22;20007;-61
2022/06/17 01:42:07;;;;;;;6.55;2.00;;;;;;;14.64;100.00;99362.94;6247572;22;20027;-61
2022/06/17 01:44:35;;;;;;;2.05;1.50;;;;;;;14.68;99.45;99364.19;6246072;22;20011;-60
2022/06/17 01:47:15;;;;;;;2.35;1.45;;;;;;;14.60;99.78;99375.34;6248359;22;20378;-60
2022/06/17 01:49:50;;;;;;;3.67;1.80;;;;;;;14.63;100.00;99372.19;6246915;22;20061;-60
2022/06/17 01:52:23;;;;;;;3.35;1.90;;;;;;;14.59;100.00;99378.25;6246964;22;20061;-61
2022/06/17 01:55:03;;;;;;;3.33;1.70;;;;;;;14.48;100.00;99372.41;6246856;22;20000;-61
2022/06/17 01:57:35;;;;;;;3.40;2.03;;;;;;;14.33;100.00;99368.25;6247300;22;20421;-60
2022/06/17 02:00:12;;;;;;;3.08;1.63;;;;;;;14.25;100.00;99370.19;6246724;22;20456;-60
2022/06/17 02:02:39;;;;;;;4.13;2.10;;;;;;;14.26;100.00;99368.28;6244350;22;20004;-60
2022/06/17 02:05:08;;;;;;;3.47;1.67;;;;;;;14.45;100.00;99363.84;6247204;22;20057;-60
2022/06/17 02:07:52;;;;;;;2.65;1.88;;;;;;;14.15;100.00;99377.97;6247373;22;19999;-60
2022/06/17 02:10:20;;;;;;;3.83;2.35;;;;;;;13.78;100.00;99372.16;6247084;22;20007;-60
2022/06/17 02:12:45;;;;;;;3.60;2.10;;;;;;;13.67;100.00;99374.66;6245333;22;20404;-60
2022/06/17 02:15:12;;;;;;;2.92;2.03;;;;;;;13.65;100.00;99383.03;6247533;22;20117;-60
2022/06/17 02:17:42;;;;;;;6.43;2.00;;;;;;;13.68;100.00;99390.75;6247730;22;20087;-60
2022/06/17 02:20:10;;;;;;;2.53;1.75;;;;;;;13.77;100.00;99394.94;6245556;22;20079;-60
2022/06/17 02:22:37;;;;;;;5.07;1.80;;;;;;;13.84;100.00;99385.94;6246301;22;20003;-60
2022/06/17 02:25:09;;;;;;;3.65;1.77;;;;;;;13.85;100.00;99379.44;6249001;22;20004;-60
2022/06/17 02:27:35;;;;;;;3.15;1.70;;;;;;;13.93;100.00;99381.94;6249031;22;20000;-60
2022/06/17 02:30:04;;;;;;;4.50;1.75;;;;;;;13.89;100.00;99380.72;6249305;22;20015;-60
2022/06/17 02:32:31;;;;;;;2.70;1.60;;;;;;;13.88;100.00;99381.75;6248122;22;20003;-60
2022/06/17 02:35:10;;;;;;;4.00;1.80;;;;;;;13.85;100.00;99382.19;6250088;22;20012;-60
2022/06/17 02:37:35;;;;;;;2.85;1.73;;;;;;;13.87;100.00;99383.63;6248912;22;20019;-60
2022/06/17 02:40:17;;;;;;;1.88;1.40;;;;;;;13.89;100.00;99380.72;6249785;22;20004;-60
2022/06/17 02:42:43;;;;;;;4.82;1.60;;;;;;;13.88;100.00;99387.19;6250202;22;20050;-60
2022/06/17 02:45:23;;;;;;;5.70;2.03;;;;;;;13.87;100.00;99388.25;6251092;22;20080;-60
2022/06/17 02:47:49;;;;;;;2.78;1.63;;;;;;;13.77;100.00;99397.66;6250540;22;20012;-59
2022/06/17 02:50:21;;;;;;;2.65;1.98;;;;;;;13.74;100.00;99399.97;6250759;22;20061;-59
2022/06/17 02:52:48;;;;;;;2.72;1.88;;;;;;;13.74;100.00;99395.34;6249034;22;20026;-59
2022/06/17 02:55:23;;;;;;;3.10;2.25;;;;;;;13.59;100.00;99392.84;6251037;22;20341;-60
2022/06/17 02:57:49;;;;;;;4.80;2.30;;;;;;;13.40;100.00;99395.56;6250366;22;20003;-60
2022/06/17 03:00:20;;;;;;;4.80;2.38;;;;;;;13.20;100.00;99390.88;6248198;22;20463;-60
2022/06/17 03:02:49;;;;;;;5.20;2.22;;;;;;;13.05;100.00;99398.38;6249328;22;20018;-60
2022/06/17 03:05:22;;;;;;;2.53;1.95;;;;;;;13.00;100.00;99399.00;6276344;22;20003;-60
2022/06/17 03:07:49;;;;;;;6.60;2.00;;;;;;;13.11;100.00;99397.56;6247518;22;20444;-60
2022/06/17 03:10:24;;;;;;;4.10;2.10;;;;;;;13.08;100.00;99393.38;6248024;22;20007;-60
2022/06/17 03:12:56;;;;;;;3.80;2.00;;;;;;;13.25;100.00;99404.69;6248349;22;20125;-60
2022/06/17 03:15:23;;;;;;;7.38;2.53;;;;;;;13.19;100.00;99405.50;6247925;22;20014;-60
2022/06/17 03:17:48;;;;;;;4.45;2.47;;;;;;;12.94;100.00;99354.47;6251601;22;20007;-70
2022/06/17 03:20:24;;;;;;;4.90;2.58;;;;;;;13.24;100.00;99403.00;6273272;22;20078;-71
2022/06/17 03:22:57;;;;;;;6.40;2.08;;;;;;;13.18;100.00;99412.00;6274588;22;20000;-71
2022/06/17 03:25:35;;;;;;;4.30;2.63;;;;;;;13.15;100.00;99405.09;6273987;22;20003;-70
2022/06/17 03:28:06;;;;;;;5.75;2.08;;;;;;;13.11;100.00;99405.69;6276052;22;20099;-71
2022/06/17 03:30:45;;;;;;;7.50;2.60;;;;;;;13.05;100.00;99417.41;6273363;22;20004;-70
2022/06/17 03:33:22;;;;;;;3.20;2.30;;;;;;;13.05;100.00;99412.78;6275535;22;20004;-69
2022/06/17 03:35:52;;;;;;;7.57;2.70;;;;;;;13.14;100.00;99418.88;6275064;22;20496;-70
2022/06/17 03:38:40;;;;;;;2.60;2.10;;;;;;;13.18;100.00;99416.56;6275279;22;20452;-71
2022/06/17 03:41:50;;;;;;;2.97;1.90;;;;;;;13.04;100.00;99393.97;6273503;22;20019;-70
2022/06/17 03:44:22;;;;;;;3.15;1.90;;;;;;;13.25;100.00;99422.88;6273274;22;20010;-70
2022/06/17 03:47:10;;;;;;;4.45;1.75;;;;;;;13.21;100.00;99433.31;6274754;22;20019;-70
2022/06/17 03:49:57;;;;;;;4.93;2.20;;;;;;;13.23;100.00;99431.25;6274776;22;20011;-70
2022/06/17 03:52:46;;;;;;;6.30;1.80;;;;;;;13.37;100.00;99443.84;6275207;22;20338;-70
2022/06/17 03:55:19;;;;;;;6.00;1.75;;;;;;;13.46;100.00;99436.31;6275677;22;20015;-70
2022/06/17 03:57:49;;;;;;;3.15;2.00;;;;;;;13.65;100.00;99459.16;6274676;22;20031;-70
2022/06/17 04:00:21;;;;;;;2.33;1.80;;;;;;;13.74;100.00;99457.06;6275357;22;20003;-70
2022/06/17 04:02:50;;;;;;;2.70;1.80;;;;;;;13.79;100.00;99457.28;6276694;22;20007;-70
2022/06/17 04:05:16;;;;;;;3.73;1.50;;;;;;;13.85;100.00;99451.00;6275848;22;20011;-70
2022/06/17 04:07:43;;;;;;;3.58;1.77;;;;;;;13.81;100.00;99442.44;6272208;22;20007;-70
2022/06/17 04:10:14;;;;;;;4.45;1.70;;;;;;;13.89;100.00;99455.00;6275810;22;20462;-70
2022/06/17 04:12:45;;;;;;;3.00;1.83;;;;;;;13.98;100.00;99458.34;6272623;22;20011;-70
2022/06/17 04:15:16;;;;;;;2.72;1.80;;;;;;;14.00;100.00;99461.69;6275533;22;20004;-70
2022/06/17 04:17:48;;;;;;;2.33;1.92;;;;;;;14.09;100.00;99459.59;6273868;22;20488;-70
2022/06/17 04:20:38;;;;;;;3.47;2.00;;;;;;;14.06;100.00;99460.00;6273307;22;20335;-70
2022/06/17 04:23:20;;;;;;;3.17;2.05;;;;;;;13.97;100.00;99460.22;6274273;22;20003;-70
2022/06/17 04:25:54;;;;;;;7.97;2.42;;;;;;;13.98;100.00;99461.06;6247428;22;20007;-70
2022/06/17 04:28:25;;;;;;;9.10;2.30;;;;;;;13.90;100.00;99469.44;6242817;22;20024;-66
2022/06/17 04:30:59;;;;;;;5.15;2.08;;;;;;;13.82;100.00;99468.56;6272634;22;20003;-65
2022/06/17 04:33:37;;;;;;;3.95;2.17;;;;;;;13.90;100.00;99458.53;6273626;22;20427;-65
2022/06/17 04:36:18;;;;;;;6.97;2.00;;;;;;;14.09;100.00;99474.03;6272910;22;20443;-66
2022/06/17 04:38:57;;;;;;;5.57;2.10;;;;;;;14.27;100.00;99475.28;6273588;22;20011;-65
2022/06/17 04:41:28;;;;;;;4.97;2.03;;;;;;;14.32;100.00;99480.94;6274513;22;20004;-68
2022/06/17 04:43:56;;;;;;;3.72;1.77;;;;;;;14.45;100.00;99486.34;6273774;22;20010;-66
2022/06/17 04:46:34;;;;;;;3.17;1.90;;;;;;;14.69;100.00;99479.41;6273897;22;20514;-67
2022/06/17 04:49:01;;;;;;;2.92;1.80;;;;;;;14.87;100.00;99486.91;6272825;22;20008;-66
2022/06/17 04:51:29;;;;;;;2.10;1.30;;;;;;;15.00;100.00;99481.41;6272216;22;20365;-66
2022/06/17 04:53:55;;;;;;;1.95;1.30;;;;;;;15.00;100.00;99477.84;6274513;22;20007;-68
2022/06/17 04:56:30;;;;;;;2.13;1.40;;;;;;;15.23;100.00;99480.06;6273314;22;20004;-67
2022/06/17 04:58:56;;;;;;;3.05;1.38;;;;;;;15.35;100.00;99475.59;6273143;22;20084;-66
2022/06/17 05:01:24;;;;;;;5.10;1.40;;;;;;;15.43;100.00;99471.78;6273808;22;20031;-67
2022/06/17 05:03:51;;;;;;;6.57;1.60;;;;;;;15.48;100.00;99482.84;6272980;22;20010;-67
2022/06/17 05:06:17;;;;;;;6.22;1.65;;;;;;;15.65;100.00;99489.47;6274088;22;20031;-67
2022/06/17 05:08:48;;;;;;;5.28;1.85;;;;;;;15.76;100.00;99499.72;6275154;22;20386;-67
2022/06/17 05:11:39;;;;;;;6.28;1.67;;;;;;;15.84;100.00;99492.31;6275021;22;20000;-66
2022/06/17 05:14:30;;;;;;;3.63;2.05;;;;;;;16.04;99.84;99503.94;6273503;22;20004;-66
2022/06/17 05:16:57;;;;;;;3.13;1.60;;;;;;;16.09;98.67;99511.47;6274941;22;19999;-66
2022/06/17 05:19:22;;;;;;;3.92;1.77;;;;;;;16.21;96.85;99512.41;6274387;22;20003;-65
2022/06/17 05:21:48;;;;;;;3.47;1.98;;;;;;;16.30;95.66;99519.28;6275952;22;20009;-67
2022/06/17 05:24:14;;;;;;;5.25;1.73;;;;;;;16.61;94.25;99506.56;6247179;22;20022;-70
2022/06/17 05:26:39;;;;;;;2.50;1.52;;;;;;;16.81;92.56;99515.44;6271475;22;20018;-69
2022/06/17 05:29:07;;;;;;;3.25;1.55;;;;;;;16.90;90.29;99506.94;6273557;22;20004;-69
2022/06/17 05:31:32;;;;;;;5.43;1.40;;;;;;;17.01;90.14;99498.81;6246964;22;19999;-76
2022/06/17 05:33:57;;;;;;;3.15;1.60;;;;;;;17.22;89.30;99516.66;6274105;22;20079;-67
2022/06/17 05:36:23;;;;;;;3.30;1.30;;;;;;;17.36;92.19;99516.50;6275106;22;19995;-69
2022/06/17 05:38:48;;;;;;;2.83;1.92;;;;;;;17.51;88.68;99504.06;6275290;22;20007;-69
2022/06/17 05:41:16;;;;;;;4.60;1.80;;;;;;;17.70;87.31;99517.72;6277033;22;20018;-69
2022/06/17 05:43:41;;;;;;;7.63;1.90;;;;;;;17.69;89.26;99516.88;6276465;22;20003;-69
2022/06/17 05:46:07;;;;;;;1.80;1.48;;;;;;;17.84;87.26;99523.84;6274562;22;20004;-69
2022/06/17 05:48:32;;;;;;;4.82;1.60;;;;;;;18.14;85.71;99530.13;6273247;22;20010;-68
2022/06/17 05:50:58;;;;;;;3.95;1.63;;;;;;;18.46;81.64;99521.59;6268772;22;20004;-65
2022/06/17 05:53:23;;;;;;;10.57;1.70;;;;;;;18.78;78.46;99526.75;6271245;22;20037;-66
2022/06/17 05:55:50;;;;;;;2.38;1.50;;;;;;;18.95;74.87;99524.94;6272383;22;20040;-65
2022/06/17 05:58:17;;;;;;;3.92;1.50;;;;;;;19.31;73.45;99524.88;6271886;22;20034;-64
2022/06/17 06:00:42;;;;;;;1.60;1.05;;;;;;;19.67;72.77;99527.28;6269411;22;20585;-65
2022/06/17 06:03:08;;;;;;;2.88;1.75;;;;;;;19.93;72.46;99523.09;6272606;22;20057;-64
2022/06/17 06:05:34;;;;;;;2.20;1.33;;;;;;;20.15;70.76;99525.16;6268657;22;20003;-63
2022/06/17 06:08:00;;;;;;;4.25;1.63;;;;;;;20.04;69.71;99521.41;6270829;22;20007;-63
2022/06/17 06:10:26;;;;;;;3.00;1.60;;;;;;;20.18;69.20;99527.38;6272002;22;20010;-62
2022/06/17 06:12:58;;;;;;;4.03;1.30;;;;;;;20.12;64.74;99520.13;6271190;22;20507;-74
2022/06/17 06:15:26;;;;;;;4.88;1.38;;;;;;;20.39;63.97;99522.25;6243799;22;20008;-70
2022/06/17 06:17:53;;;;;;;1.85;1.10;;;;;;;20.65;60.24;99518.84;6273243;22;20075;-68
2022/06/17 06:20:19;;;;;;;5.07;1.58;;;;;;;20.78;60.74;99518.47;6246418;22;20023;-68
2022/06/17 06:22:44;;;;;;;3.80;1.13;;;;;;;21.09;60.44;99510.66;6272485;22;20707;-71
2022/06/17 06:25:12;;;;;;;2.30;1.30;;;;;;;21.75;57.95;99515.31;6271949;22;20086;-69
2022/06/17 06:27:37;;;;;;;2.22;1.38;;;;;;;22.21;57.42;99515.78;6272456;22;20378;-70
2022/06/17 06:30:03;;;;;;;2.10;1.35;;;;;;;22.46;54.85;99516.00;6272214;22;20158;-70
2022/06/17 06:32:29;;;;;;;4.45;1.20;;;;;;;22.73;54.95;99510.38;6272466;22;20012;-70
2022/06/17 06:34:54;;;;;;;2.33;1.40;;;;;;;22.81;53.25;99498.00;6272632;22;20446;-67
2022/06/17 06:37:19;;;;;;;5.35;1.33;;;;;;;22.90;53.25;99506.63;6271887;22;20490;-68
2022/06/17 06:39:45;;;;;;;5.40;1.30;;;;;;;22.99;52.35;99495.94;6270241;22;20061;-68
2022/06/17 06:42:10;;;;;;;5.45;1.25;;;;;;;23.04;53.19;99505.06;6272394;22;20012;-68
2022/06/17 06:44:36;;;;;;;3.20;1.27;;;;;;;23.39;52.19;99501.63;6271460;22;20010;-68
2022/06/17 06:47:01;;;;;;;1.77;1.00;;;;;;;23.52;51.34;99499.47;6272153;22;20020;-68
2022/06/17 06:49:26;;;;;;;1.73;1.10;;;;;;;23.79;50.01;99502.91;6273042;22;20000;-68
2022/06/17 06:51:52;;;;;;;1.80;1.10;;;;;;;24.20;48.00;99502.94;6272541;22;20043;-68
2022/06/17 06:54:17;;;;;;;5.88;1.10;;;;;;;24.29;46.69;99503.22;6280263;22;20003;-68
2022/06/17 06:56:42;;;;;;;2.30;1.10;;;;;;;24.76;45.68;99498.47;6285702;22;20053;-68
2022/06/17 06:59:09;;;;;;;2.38;1.00;;;;;;;24.71;45.05;99502.09;6289541;22;20012;-68
2022/06/17 07:01:34;;;;;;;2.28;1.10;;;;;;;25.33;43.53;99503.59;6285947;22;20335;-68
2022/06/17 07:03:59;;;;;;;3.47;1.00;;;;;;;26.28;41.78;99496.09;6273918;22;20042;-69
2022/06/17 07:06:25;;;;;;;2.80;1.00;;;;;;;26.87;40.72;99508.06;6278871;22;20004;-73
2022/06/17 07:08:50;;;;;;;2.55;1.00;;;;;;;28.11;39.25;99500.66;6277470;22;20011;-67
2022/06/17 07:11:16;;;;;;;3.38;0.98;;;;;;;29.78;36.42;99496.94;6276912;22;20007;-76
2022/06/17 07:13:43;;;;;;;2.92;0.90;;;;;;;30.52;34.68;99499.34;6249739;22;20082;-72
2022/06/17 07:16:10;;;;;;;2.85;1.10;;;;;;;31.69;32.68;99507.59;6274538;22;20049;-71
2022/06/17 07:18:37;;;;;;;1.50;0.70;;;;;;;32.13;31.44;99508.47;6264037;22;20023;-71
2022/06/17 07:21:05;;;;;;;4.70;1.08;;;;;;;30.63;32.80;99513.03;6271749;22;20003;-68
2022/06/17 07:23:34;;;;;;;3.67;1.30;;;;;;;30.57;32.30;99496.41;6275303;22;20014;-74
2022/06/17 07:26:02;;;;;;;3.22;0.90;;;;;;;33.18;29.36;99515.50;6272663;22;20401;-75
2022/06/17 07:28:27;;;;;;;4.10;1.10;;;;;;;33.02;29.04;99520.03;6273910;22;20053;-73
2022/06/17 07:30:54;;;;;;;2.38;0.90;;;;;;;34.45;27.20;99525.72;6272339;22;20234;-70
2022/06/17 07:33:22;;;;;;;3.65;1.05;;;;;;;33.28;28.81;99512.31;6275058;22;20018;-72
2022/06/17 07:35:49;;;;;;;1.27;1.00;;;;;;;33.83;29.20;99519.78;6274370;22;20004;-74
2022/06/17 07:41:06;;;;;;;4.90;1.10;;;;;;;34.11;28.60;99504.38;6274851;22;20014;-72
2022/06/17 07:43:32;;;;;;;2.53;1.02;;;;;;;33.99;27.98;99521.97;6272972;22;20435;-72
2022/06/17 07:45:58;;;;;;;5.75;1.02;;;;;;;34.01;28.10;99522.47;6271905;22;19999;-68
2022/06/17 07:48:24;;;;;;;3.00;1.10;;;;;;;34.60;27.61;99519.47;6272483;22;20102;-68
2022/06/17 07:50:49;;;;;;;4.63;1.02;;;;;;;35.05;27.53;99512.19;6274567;22;20079;-68
2022/06/17 07:53:15;;;;;;;2.78;1.02;;;;;;;34.91;27.38;99513.34;6274032;22;20332;-68
2022/06/17 07:55:42;;;;;;;3.47;1.10;;;;;;;35.86;27.24;99520.88;6274880;22;20458;-68
2022/06/17 07:58:10;;;;;;;4.82;1.33;;;;;;;33.89;27.53;99516.75;6272514;22;20112;-68
2022/06/17 08:00:41;;;;;;;1.33;1.00;;;;;;;33.78;27.84;99514.34;6269134;22;20008;-68
2022/06/17 08:03:07;;;;;;;3.42;0.93;;;;;;;34.11;27.88;99501.56;6271729;22;20347;-68
2022/06/17 08:05:33;;;;;;;2.10;1.10;;;;;;;34.77;27.56;99517.63;6271315;22;20046;-68
2022/06/17 08:08:03;;;;;;;2.17;1.10;;;;;;;34.22;26.79;99514.06;6270384;22;20008;-71
2022/06/17 08:10:31;;;;;;;1.50;1.00;;;;;;;34.73;26.60;99506.28;6271674;22;20023;-73
2022/06/17 08:12:56;;;;;;;2.30;1.02;;;;;;;35.48;26.38;99503.19;6270092;22;20011;-70
2022/06/17 08:15:22;;;;;;;1.98;0.68;;;;;;;35.99;26.82;99516.84;6271452;22;20439;-71
2022/06/17 08:17:48;;;;;;;5.25;0.90;;;;;;;36.03;25.79;99516.97;6270539;22;20046;-71
2022/06/17 08:20:23;;;;;;;5.22;1.33;;;;;;;36.70;25.37;99523.75;6272933;22;20003;-71
2022/06/17 08:22:49;;;;;;;1.00;0.85;;;;;;;37.59;25.47;99516.78;6274240;22;20007;-71
2022/06/17 08:25:15;;;;;;;2.45;1.10;;;;;;;37.56;24.59;99519.53;6270043;22;20035;-73
2022/06/17 08:27:48;;;;;;;1.83;1.08;;;;;;;37.91;23.98;99526.00;6272264;22;20012;-71
2022/06/17 08:30:15;;;;;;;2.47;1.20;;;;;;;38.70;23.34;99518.34;6275047;22;20073;-75
2022/06/17 08:32:48;;;;;;;1.15;0.80;;;;;;;38.31;23.55;99515.56;6274645;22;20012;-73
2022/06/17 08:35:15;;;;;;;3.20;0.95;;;;;;;39.37;23.55;99524.44;6271128;22;20003;-73
2022/06/17 08:37:42;;;;;;;6.75;1.15;;;;;;;37.42;24.27;99526.44;6272071;22;20031;-73
2022/06/17 08:40:37;;;;;;;3.55;1.10;;;;;;;38.23;23.72;99522.22;6245508;22;20007;-74
2022/06/17 08:43:24;;;;;;;1.92;1.05;;;;;;;37.59;23.53;99508.31;6269965;22;20000;-74
2022/06/17 08:45:58;;;;;;;2.58;1.27;;;;;;;36.84;23.71;99518.50;6274906;22;20003;-77
2022/06/17 08:48:49;;;;;;;4.82;1.23;;;;;;;36.30;24.59;99512.53;6285137;22;20023;-74
2022/06/17 08:51:26;;;;;;;5.40;1.25;;;;;;;37.15;24.43;99516.91;6274809;22;20007;-75
2022/06/17 08:54:19;;;;;;;1.67;0.88;;;;;;;36.96;23.30;99525.25;6301565;22;20002;-75
2022/06/17 08:56:53;;;;;;;1.80;0.90;;;;;;;37.75;22.57;99516.75;6298196;22;20022;-76
2022/06/17 08:59:28;;;;;;;3.85;1.00;;;;;;;39.02;21.56;99504.84;6275131;22;20011;-74
2022/06/17 09:02:45;;;;;;;4.32;1.25;;;;;;;37.60;22.50;99512.78;6303330;22;19998;-76
2022/06/17 09:05:40;;;;;;;3.38;1.20;;;;;;;37.85;22.61;99512.53;6253282;22;20023;-68
2022/06/17 09:08:36;;;;;;;5.45;1.17;;;;;;;37.83;22.26;99510.06;6270918;22;20061;-70
2022/06/17 09:11:24;;;;;;;1.63;0.93;;;;;;;37.19;23.41;99494.44;6236662;22;20013;-72
2022/06/17 09:13:59;;;;;;;2.28;0.90;;;;;;;37.64;22.95;99502.38;6242876;22;20010;-73
2022/06/17 09:16:42;;;;;;;3.35;0.88;;;;;;;38.02;22.68;99509.31;6272239;22;20006;-72
2022/06/17 09:19:10;;;;;;;0.95;0.73;;;;;;;38.41;22.97;99511.28;6272691;22;20440;-61
2022/06/17 09:21:50;;;;;;;1.75;0.88;;;;;;;37.27;22.40;99504.69;6271434;22;20007;-62
2022/06/17 09:24:26;;;;;;;1.73;1.10;;;;;;;36.25;23.91;99510.78;6272074;22;20023;-61
2022/06/17 09:27:04;;;;;;;2.25;1.05;;;;;;;35.73;24.83;99501.19;6269591;22;20004;-62
2022/06/17 09:30:06;;;;;;;1.42;0.90;;;;;;;35.54;24.35;99501.78;6274208;22;20008;-62
2022/06/17 09:32:37;;;;;;;1.42;0.98;;;;;;;35.38;25.02;99497.22;6268188;22;20004;-61
2022/06/17 09:35:18;;;;;;;2.08;0.90;;;;;;;36.49;24.18;99501.41;6273488;22;20007;-61
2022/06/17 09:37:46;;;;;;;4.03;0.85;;;;;;;36.84;24.60;99507.22;6274498;22;20053;-62
2022/06/17 09:40:21;;;;;;;;;;;;;;;37.48;24.05;99498.75;6274728;22;20082;-62
2022/06/17 09:42:57;;;;;;;2.05;0.88;;;;;;;39.19;22.59;99506.31;6271913;22;19903;-62
2022/06/17 09:45:31;;;;;;;4.40;0.80;;;;;;;39.08;22.70;99499.66;6270270;22;19999;-61
2022/06/17 09:48:00;;;;;;;2.70;0.93;;;;;;;39.21;22.50;99501.09;6271704;22;20413;-61
2022/06/17 09:50:36;;;;;;;2.50;0.80;;;;;;;39.34;22.52;99501.75;6273282;22;20042;-61
2022/06/17 09:53:09;;;;;;;2.33;0.80;;;;;;;39.74;21.81;99501.13;6272152;22;20004;-61
2022/06/17 09:55:41;;;;;;;2.75;0.98;;;;;;;39.86;21.69;99498.09;6272435;22;20083;-61
2022/06/17 09:58:17;;;;;;;1.83;0.90;;;;;;;38.48;22.29;99495.31;6273671;22;20008;-61
2022/06/17 10:00:47;;;;;;;2.10;0.98;;;;;;;39.65;20.89;99492.91;6270903;22;20000;-61
2022/06/17 10:03:23;;;;;;;3.60;1.15;;;;;;;37.10;23.95;99488.97;6273001;22;20011;-61
2022/06/17 10:06:13;;;;;;;1.92;0.77;;;;;;;37.59;22.77;99485.72;6273530;22;20008;-59
2022/06/17 10:09:00;;;;;;;1.60;1.00;;;;;;;37.53;24.19;99475.91;6271532;22;20383;-59
2022/06/17 10:11:30;;;;;;;2.17;0.90;;;;;;;38.00;24.01;99472.13;6272001;22;20400;-59
2022/06/17 10:14:26;;;;;;;1.48;0.88;;;;;;;36.76;24.00;99471.56;6271979;22;19995;-59
2022/06/17 10:19:51;;;;;;;2.35;1.35;;;;;;;35.98;25.12;99470.97;6273366;22;20093;-60
2022/06/17 10:22:24;;;;;;;2.00;1.00;;;;;;;36.01;24.84;99462.97;6246832;22;20003;-59
2022/06/17 10:25:20;;;;;;;1.95;1.15;;;;;;;36.63;24.07;99470.00;6245808;22;20069;-59
2022/06/17 10:27:53;;;;;;;2.38;1.00;;;;;;;36.98;23.65;99472.09;6244895;22;20003;-60
2022/06/17 10:30:51;;;;;;;1.60;1.30;;;;;;;38.04;22.20;99469.38;6247718;22;20019;-60
2022/06/17 10:33:18;;;;;;;2.90;1.10;;;;;;;35.78;24.48;99481.22;6247243;22;20008;-60
2022/06/17 10:35:45;;;;;;;2.50;1.00;;;;;;;34.40;26.25;99479.00;6246550;22;20477;-60
2022/06/17 12:54:23;;;;;;;3.15;0.80;;;;;;;39.85;20.53;99388.78;5127201;27;20440;-63
2022/06/17 12:57:01;;;;;;;1.00;0.70;;;;;;;39.96;20.81;99386.09;5109910;28;20474;-63
2022/06/17 12:59:59;;;;;;;;;;;;;;;40.13;20.21;99392.31;5112625;27;20024;-63
2022/06/17 13:02:35;;;;;;;1.88;0.90;;;;;;;39.88;20.87;99378.72;5072953;27;20860;-63
2022/06/17 13:05:22;;;;;;;2.42;1.00;;;;;;;38.80;20.02;99381.94;5112549;27;20032;-63
2022/06/17 13:07:59;;;;;;;5.63;0.80;;;;;;;38.36;20.13;99371.91;5108694;27;20054;-62
2022/06/17 13:10:48;;;;;;;1.58;0.77;;;;;;;39.73;21.39;99377.69;5102811;28;20110;-62
2022/06/17 13:13:14;;;;;;;1.67;0.80;;;;;;;39.78;20.43;99376.56;5112530;27;20516;-63
2022/06/17 13:16:00;;;;;;;2.43;0.90;;;;;;;39.30;21.18;99376.25;5109200;27;20032;-63
2022/06/17 13:18:48;;;;;;;2.00;0.80;;;;;;;38.83;21.10;99364.25;5100002;28;20412;-63
2022/06/17 13:21:44;;;;;;;2.50;0.70;;;;;;;39.14;21.55;99363.09;5099483;27;20457;-63
2022/06/17 13:24:31;;;;;;;2.80;0.98;;;;;;;39.70;20.88;99358.63;5116381;27;20027;-63
2022/06/17 13:27:10;;;;;;;1.37;0.63;;;;;;;39.84;21.27;99355.97;5112065;28;20055;-62
2022/06/17 13:29:50;;;;;;;2.83;0.75;;;;;;;38.67;21.13;99355.88;5111232;27;20023;-63
2022/06/17 13:32:39;;;;;;;1.10;0.65;;;;;;;39.27;21.32;99363.69;5096288;27;20063;-63
2022/06/17 13:35:40;;;;;;;1.85;0.63;;;;;;;39.52;20.31;99349.09;5105408;27;20034;-63
2022/06/17 13:38:35;;;;;;;1.80;0.80;;;;;;;39.94;20.24;99357.31;5087519;27;20043;-64
2022/06/17 13:41:15;;;;;;;1.30;0.73;;;;;;;40.35;20.59;99353.69;5116761;27;20042;-63
2022/06/17 13:43:49;;;;;;;2.20;0.73;;;;;;;40.09;20.32;99355.44;5118926;27;20018;-63
2022/06/17 13:46:22;;;;;;;0.77;0.50;;;;;;;39.47;20.33;99353.06;5113592;27;20397;-63
2022/06/17 13:48:59;;;;;;;1.00;0.60;;;;;;;38.91;20.29;99351.88;5112857;27;20055;-63
2022/06/17 13:51:50;;;;;;;1.10;0.70;;;;;;;38.55;20.44;99342.78;5116997;27;20031;-62
2022/06/17 13:54:37;;;;;;;2.25;0.60;;;;;;;38.02;20.85;99341.78;5114591;28;20027;-63
2022/06/17 13:57:17;;;;;;;2.88;0.85;;;;;;;38.60;21.76;99347.31;5128042;27;20115;-62
2022/06/17 13:59:51;;;;;;;1.40;0.60;;;;;;;39.27;20.25;99354.38;5110860;28;20073;-63
2022/06/17 14:02:51;;;;;;;1.45;0.70;;;;;;;37.99;20.15;99337.72;5104645;27;20525;-62
2022/06/17 14:05:28;;;;;;;1.55;0.70;;;;;;;38.73;21.54;99342.25;5087567;27;20030;-63
2022/06/17 14:08:07;;;;;;;1.83;0.60;;;;;;;38.58;21.56;99339.19;5086028;27;20118;-63
2022/06/17 14:11:31;;;;;;;4.82;0.70;;;;;;;38.89;21.61;99333.63;5091133;28;20024;-63
2022/06/17 14:13:43;;;;;;;1.50;0.60;;;;;;;37.04;21.25;99319.16;5103333;27;20032;-65
2022/06/17 14:16:15;;;;;;;2.25;0.90;;;;;;;37.23;22.51;99314.72;5091019;27;20023;-64
2022/06/17 14:18:48;;;;;;;1.67;1.08;;;;;;;38.12;22.47;99313.75;5085311;28;20127;-64
2022/06/17 14:21:22;;;;;;;0.70;0.60;;;;;;;39.04;19.62;99314.84;5085657;28;20032;-65
2022/06/17 14:23:54;;;;;;;2.65;0.70;;;;;;;37.11;22.81;99304.41;5086907;27;20069;-65